createdAt,value
2019-05-14T00:00:54.371Z,11.72
2019-05-14T00:02:03.301Z,11.74
2019-05-14T00:03:08.212Z,11.74
2019-05-14T00:04:19.375Z,11.71
2019-05-14T00:05:12.097Z,11.71
2019-05-14T00:06:24.403Z,11.71
2019-05-14T00:07:29.437Z,11.74
2019-05-14T00:08:34.248Z,11.71
2019-05-14T00:09:41.406Z,11.62
2019-05-14T00:10:43.590Z,11.68
2019-05-14T00:11:51.078Z,11.57
2019-05-14T00:12:51.178Z,11.67
2019-05-14T00:14:03.466Z,11.53
2019-05-14T00:15:11.059Z,11.53
2019-05-14T00:16:14.952Z,11.50
2019-05-14T00:17:26.221Z,11.54
2019-05-14T00:18:22.334Z,11.53
2019-05-14T00:19:24.912Z,11.52
2019-05-14T00:20:33.002Z,11.47
2019-05-14T00:21:44.990Z,11.50
2019-05-14T00:22:42.957Z,11.53
2019-05-14T00:23:51.320Z,11.52
2019-05-14T00:24:52.691Z,11.50
2019-05-14T00:26:02.007Z,11.38
2019-05-14T00:27:03.256Z,11.44
2019-05-14T00:28:07.353Z,11.39
2019-05-14T00:29:21.980Z,11.35
2019-05-14T00:30:22.726Z,11.38
2019-05-14T00:31:35.227Z,11.39
2019-05-14T00:32:24.378Z,11.39
2019-05-14T00:33:41.743Z,11.41
2019-05-14T00:34:38.630Z,11.34
2019-05-14T00:35:51.519Z,11.25
2019-05-14T00:36:48.676Z,11.35
2019-05-14T00:38:05.374Z,11.20
2019-05-14T00:39:11.190Z,11.28
2019-05-14T00:40:17.753Z,11.25
2019-05-14T00:41:21.417Z,11.24
2019-05-14T00:42:28.850Z,11.24
2019-05-14T00:43:34.593Z,11.25
2019-05-14T00:44:33.676Z,11.14
2019-05-14T00:45:42.803Z,11.17
2019-05-14T00:46:51.559Z,11.19
2019-05-14T00:47:57.661Z,11.17
2019-05-14T00:48:53.569Z,11.19
2019-05-14T00:50:11.197Z,11.09
2019-05-14T00:51:18.469Z,11.17
2019-05-14T00:52:11.645Z,11.13
2019-05-14T00:53:24.636Z,11.10
2019-05-14T00:54:41.410Z,11.09
2019-05-14T00:55:44.097Z,11.09
2019-05-14T00:56:57.722Z,11.06
2019-05-14T00:57:42.428Z,11.02
2019-05-14T00:58:54.358Z,10.98
2019-05-14T00:59:52.348Z,11.03
2019-05-14T01:00:52.436Z,11.10
2019-05-14T01:02:02.622Z,10.92
2019-05-14T01:03:11.189Z,11.02
2019-05-14T01:04:18.356Z,10.99
2019-05-14T01:05:32.096Z,11.03
2019-05-14T01:06:47.555Z,10.96
2019-05-14T01:07:37.009Z,10.96
2019-05-14T01:08:31.870Z,10.99
2019-05-14T01:09:52.278Z,11.03
2019-05-14T01:10:47.377Z,11.03
2019-05-14T01:11:46.257Z,10.96
2019-05-14T01:12:58.035Z,10.96
2019-05-14T01:14:15.555Z,10.86
2019-05-14T01:15:14.119Z,10.84
2019-05-14T01:16:13.622Z,10.83
2019-05-14T01:17:19.875Z,10.84
2019-05-14T01:18:44.697Z,10.91
2019-05-14T01:19:42.211Z,10.77
2019-05-14T01:20:46.320Z,10.80
2019-05-14T01:21:46.627Z,10.77
2019-05-14T01:23:06.914Z,10.80
2019-05-14T01:23:44.185Z,10.83
2019-05-14T01:24:55.557Z,10.77
2019-05-14T01:25:57.508Z,10.76
2019-05-14T01:27:13.902Z,10.70
2019-05-14T01:28:27.254Z,10.70
2019-05-14T01:29:18.522Z,10.73
2019-05-14T01:30:33.276Z,10.70
2019-05-14T01:31:45.980Z,10.70
2019-05-14T01:32:51.216Z,10.73
2019-05-14T01:33:48.455Z,10.73
2019-05-14T01:34:51.963Z,10.71
2019-05-14T01:35:58.909Z,10.62
2019-05-14T01:36:52.901Z,10.62
2019-05-14T01:38:06.094Z,10.66
2019-05-14T01:39:25.967Z,10.56
2019-05-14T01:40:22.600Z,10.56
2019-05-14T01:41:13.793Z,10.62
2019-05-14T01:42:41.899Z,10.58
2019-05-14T01:43:25.995Z,10.70
2019-05-14T01:44:51.929Z,10.63
2019-05-14T01:46:07.785Z,10.70
2019-05-14T01:47:01.871Z,10.62
2019-05-14T01:47:51.878Z,10.65
2019-05-14T01:49:22.559Z,10.56
2019-05-14T01:49:58.496Z,10.58
2019-05-14T01:51:37.418Z,10.55
2019-05-14T01:52:26.063Z,10.59
2019-05-14T01:53:41.583Z,10.60
2019-05-14T01:54:47.981Z,10.55
2019-05-14T01:55:35.029Z,10.51
2019-05-14T01:57:02.108Z,10.63
2019-05-14T01:57:45.547Z,10.59
2019-05-14T01:59:04.495Z,10.59
2019-05-14T02:00:02.269Z,10.55
2019-05-14T02:01:24.579Z,10.47
2019-05-14T02:02:22.950Z,10.46
2019-05-14T02:03:40.953Z,10.46
2019-05-14T02:04:24.087Z,10.44
2019-05-14T02:05:39.045Z,10.40
2019-05-14T02:06:28.513Z,10.36
2019-05-14T02:07:39.061Z,10.39
2019-05-14T02:08:41.291Z,10.33
2019-05-14T02:10:01.911Z,10.33
2019-05-14T02:11:12.009Z,10.28
2019-05-14T02:12:38.275Z,10.28
2019-05-14T02:13:41.355Z,10.26
2019-05-14T02:14:35.048Z,10.25
2019-05-14T02:15:42.907Z,10.25
2019-05-14T02:16:57.556Z,10.22
2019-05-14T02:17:47.321Z,10.22
2019-05-14T02:18:37.086Z,10.18
2019-05-14T02:20:52.210Z,10.25
2019-05-14T02:22:41.729Z,10.24
2019-05-14T02:23:34.739Z,10.19
2019-05-14T02:24:48.905Z,10.25
2019-05-14T02:25:31.790Z,10.26
2019-05-14T02:26:52.706Z,10.19
2019-05-14T02:27:37.459Z,10.21
2019-05-14T02:28:52.001Z,10.17
2019-05-14T02:29:53.240Z,10.26
2019-05-14T02:30:56.404Z,10.22
2019-05-14T02:32:40.275Z,10.22
2019-05-14T02:34:19.705Z,10.21
2019-05-14T02:34:45.593Z,10.18
2019-05-14T02:35:55.430Z,10.24
2019-05-14T02:37:52.788Z,10.14
2019-05-14T02:38:29.622Z,10.22
2019-05-14T02:39:53.009Z,10.22
2019-05-14T02:40:25.484Z,10.09
2019-05-14T02:41:34.696Z,10.15
2019-05-14T02:42:40.534Z,10.15
2019-05-14T02:44:30.807Z,10.12
2019-05-14T02:45:45.031Z,10.17
2019-05-14T02:46:21.418Z,10.14
2019-05-14T02:47:24.082Z,10.10
2019-05-14T02:49:31.267Z,10.06
2019-05-14T02:50:50.226Z,10.15
2019-05-14T02:52:12.749Z,10.14
2019-05-14T02:52:49.920Z,10.17
2019-05-14T02:54:02.843Z,10.10
2019-05-14T02:54:59.647Z,10.00
2019-05-14T02:55:59.715Z,9.97
2019-05-14T02:57:30.624Z,10.01
2019-05-14T02:58:09.739Z,10.06
2019-05-14T02:59:50.046Z,10.01
2019-05-14T03:00:40.630Z,10.01
2019-05-14T03:01:45.372Z,9.96
2019-05-14T03:02:43.947Z,9.91
2019-05-14T03:03:49.274Z,9.97
2019-05-14T03:05:09.889Z,9.93
2019-05-14T03:06:22.159Z,9.82
2019-05-14T03:07:02.001Z,9.79
2019-05-14T03:08:19.709Z,9.79
2019-05-14T03:09:16.116Z,9.83
2019-05-14T03:10:24.747Z,9.79
2019-05-14T03:11:09.350Z,9.71
2019-05-14T03:12:43.811Z,9.67
2019-05-14T03:13:49.391Z,9.64
2019-05-14T03:14:30.807Z,9.67
2019-05-14T03:15:34.826Z,9.64
2019-05-14T03:16:52.640Z,9.70
2019-05-14T03:18:03.504Z,9.64
2019-05-14T03:19:10.472Z,9.66
2019-05-14T03:20:19.517Z,9.66
2019-05-14T03:21:39.434Z,9.64
2019-05-14T03:22:25.831Z,9.63
2019-05-14T03:23:05.034Z,9.66
2019-05-14T03:24:44.197Z,9.64
2019-05-14T03:25:39.883Z,9.66
2019-05-14T03:26:35.213Z,9.66
2019-05-14T03:28:02.136Z,9.63
2019-05-14T03:28:59.930Z,9.64
2019-05-14T03:30:11.505Z,9.64
2019-05-14T03:31:04.393Z,9.68
2019-05-14T03:32:02.518Z,9.68
2019-05-14T03:33:21.817Z,9.67
2019-05-14T03:34:22.645Z,9.66
2019-05-14T03:35:23.468Z,9.64
2019-05-14T03:36:42.650Z,9.66
2019-05-14T03:37:24.181Z,9.64
2019-05-14T03:38:51.874Z,9.67
2019-05-14T03:39:59.370Z,9.66
2019-05-14T03:40:53.933Z,9.70
2019-05-14T03:41:55.274Z,9.68
2019-05-14T03:43:01.318Z,9.68
2019-05-14T03:44:05.423Z,9.66
2019-05-14T03:45:13.008Z,9.66
2019-05-14T03:46:09.597Z,9.71
2019-05-14T03:47:20.086Z,9.61
2019-05-14T03:48:23.373Z,9.63
2019-05-14T03:49:40.143Z,9.53
2019-05-14T03:50:34.345Z,9.66
2019-05-14T03:51:50.953Z,9.66
2019-05-14T03:52:59.109Z,9.64
2019-05-14T03:54:12.119Z,9.53
2019-05-14T03:55:19.912Z,9.53
2019-05-14T03:56:11.760Z,9.57
2019-05-14T03:57:19.932Z,9.53
2019-05-14T03:58:29.834Z,9.60
2019-05-14T03:59:29.065Z,9.53
2019-05-14T04:00:39.015Z,9.57
2019-05-14T04:01:39.928Z,9.63
2019-05-14T04:02:39.543Z,9.64
2019-05-14T04:04:01.771Z,9.57
2019-05-14T04:04:49.810Z,9.56
2019-05-14T04:06:10.590Z,9.63
2019-05-14T04:07:03.127Z,9.53
2019-05-14T04:08:21.581Z,9.52
2019-05-14T04:09:12.048Z,9.53
2019-05-14T04:10:19.073Z,9.53
2019-05-14T04:11:33.871Z,9.53
2019-05-14T04:12:33.476Z,9.56
2019-05-14T04:13:31.220Z,9.57
2019-05-14T04:14:51.716Z,9.56
2019-05-14T04:15:42.704Z,9.50
2019-05-14T04:16:58.518Z,9.49
2019-05-14T04:17:53.579Z,9.43
2019-05-14T04:19:18.970Z,9.34
2019-05-14T04:20:09.307Z,9.38
2019-05-14T04:21:14.377Z,9.32
2019-05-14T04:22:00.360Z,9.38
2019-05-14T04:23:28.890Z,9.30
2019-05-14T04:24:36.434Z,9.30
2019-05-14T04:25:29.547Z,9.32
2019-05-14T04:26:30.472Z,9.30
2019-05-14T04:27:50.373Z,9.35
2019-05-14T04:28:55.088Z,9.21
2019-05-14T04:29:45.871Z,9.34
2019-05-14T04:30:59.545Z,9.25
2019-05-14T04:32:03.989Z,9.25
2019-05-14T04:33:10.498Z,9.31
2019-05-14T04:34:21.740Z,9.30
2019-05-14T04:35:30.657Z,9.23
2019-05-14T04:36:33.539Z,9.30
2019-05-14T04:37:28.889Z,9.25
2019-05-14T04:38:40.916Z,9.34
2019-05-14T04:39:50.223Z,9.35
2019-05-14T04:40:45.334Z,9.40
2019-05-14T04:41:55.272Z,9.34
2019-05-14T04:43:03.579Z,9.39
2019-05-14T04:44:05.423Z,9.39
2019-05-14T04:45:10.743Z,9.43
2019-05-14T04:46:09.988Z,9.45
2019-05-14T04:47:25.209Z,9.48
2019-05-14T04:48:32.343Z,9.56
2019-05-14T04:49:45.301Z,9.48
2019-05-14T04:50:50.028Z,9.56
2019-05-14T04:51:30.225Z,9.45
2019-05-14T04:52:49.051Z,9.49
2019-05-14T04:53:55.565Z,9.61
2019-05-14T04:54:59.282Z,9.52
2019-05-14T04:56:25.478Z,9.56
2019-05-14T04:57:30.421Z,9.63
2019-05-14T04:58:29.916Z,9.71
2019-05-14T04:59:39.558Z,9.68
2019-05-14T05:00:39.323Z,9.71
2019-05-14T05:01:42.306Z,9.78
2019-05-14T05:03:12.620Z,9.73
2019-05-14T05:04:14.059Z,9.85
2019-05-14T05:05:00.042Z,9.81
2019-05-14T05:05:55.445Z,9.83
2019-05-14T05:07:29.673Z,9.86
2019-05-14T05:08:14.192Z,9.91
2019-05-14T05:09:35.803Z,9.88
2019-05-14T05:10:25.670Z,9.94
2019-05-14T05:11:49.677Z,9.96
2019-05-14T05:12:43.368Z,10.04
2019-05-14T05:13:45.148Z,9.99
2019-05-14T05:14:58.569Z,10.00
2019-05-14T05:16:11.488Z,10.12
2019-05-14T05:17:10.567Z,10.07
2019-05-14T05:18:32.384Z,10.09
2019-05-14T05:19:30.953Z,10.07
2019-05-14T05:20:29.481Z,10.03
2019-05-14T05:21:19.193Z,10.14
2019-05-14T05:22:48.894Z,10.10
2019-05-14T05:23:38.033Z,10.18
2019-05-14T05:24:48.454Z,10.25
2019-05-14T05:25:45.439Z,10.21
2019-05-14T05:27:29.789Z,10.19
2019-05-14T05:28:34.912Z,10.25
2019-05-14T05:29:30.822Z,10.33
2019-05-14T05:31:32.779Z,10.39
2019-05-14T05:32:30.739Z,10.42
2019-05-14T05:33:34.804Z,10.34
2019-05-14T05:34:45.188Z,10.32
2019-05-14T05:35:49.500Z,10.43
2019-05-14T05:36:35.120Z,10.43
2019-05-14T05:37:50.845Z,10.46
2019-05-14T05:39:12.153Z,10.46
2019-05-14T05:40:03.351Z,10.58
2019-05-14T05:43:09.218Z,10.56
2019-05-14T05:44:00.200Z,10.58
2019-05-14T05:45:12.806Z,10.68
2019-05-14T05:46:18.878Z,10.68
2019-05-14T05:47:36.070Z,10.71
2019-05-14T05:48:20.842Z,10.58
2019-05-14T05:49:53.894Z,10.70
2019-05-14T05:50:53.597Z,10.65
2019-05-14T05:51:39.572Z,10.70
2019-05-14T05:53:20.443Z,10.65
2019-05-14T05:54:05.695Z,10.68
2019-05-14T05:55:08.841Z,10.66
2019-05-14T05:56:04.792Z,10.74
2019-05-14T05:57:18.667Z,10.63
2019-05-14T05:58:30.179Z,10.73
2019-05-14T05:59:39.294Z,10.63
2019-05-14T06:00:20.795Z,10.68
2019-05-14T06:01:45.714Z,10.68
2019-05-14T06:02:59.032Z,10.70
2019-05-14T06:03:42.318Z,10.76
2019-05-14T06:05:02.190Z,10.76
2019-05-14T06:05:59.257Z,10.66
2019-05-14T06:07:03.434Z,10.76
2019-05-14T06:08:39.020Z,10.70
2019-05-14T06:09:29.761Z,10.65
2019-05-14T06:10:13.998Z,10.74
2019-05-14T06:11:38.132Z,10.76
2019-05-14T06:12:49.015Z,10.74
2019-05-14T06:13:39.878Z,10.74
2019-05-14T06:14:34.404Z,10.80
2019-05-14T06:16:12.814Z,10.76
2019-05-14T06:16:48.666Z,10.76
2019-05-14T06:18:18.347Z,10.81
2019-05-14T06:19:04.845Z,10.78
2019-05-14T06:20:18.880Z,10.84
2019-05-14T06:21:28.994Z,10.88
2019-05-14T06:22:32.720Z,10.84
2019-05-14T06:23:38.483Z,10.83
2019-05-14T06:24:40.324Z,10.83
2019-05-14T06:25:40.628Z,10.81
2019-05-14T06:27:05.106Z,10.83
2019-05-14T06:27:40.535Z,10.83
2019-05-14T06:29:02.457Z,10.83
2019-05-14T06:30:09.218Z,10.84
2019-05-14T06:31:19.491Z,10.92
2019-05-14T06:32:12.010Z,10.95
2019-05-14T06:33:23.885Z,10.98
2019-05-14T06:34:29.264Z,10.96
2019-05-14T06:35:39.484Z,11.03
2019-05-14T06:36:29.290Z,10.92
2019-05-14T06:37:33.643Z,10.94
2019-05-14T06:38:42.251Z,10.95
2019-05-14T06:39:48.311Z,11.06
2019-05-14T06:40:55.780Z,11.01
2019-05-14T06:42:03.681Z,10.89
2019-05-14T06:42:52.847Z,10.99
2019-05-14T06:44:19.046Z,10.92
2019-05-14T06:45:03.598Z,10.95
2019-05-14T06:46:18.998Z,11.03
2019-05-14T06:47:29.307Z,10.96
2019-05-14T06:48:29.907Z,10.94
2019-05-14T06:49:44.280Z,10.95
2019-05-14T06:50:50.208Z,11.02
2019-05-14T06:51:55.345Z,11.03
2019-05-14T06:52:58.086Z,11.09
2019-05-14T06:53:59.862Z,11.09
2019-05-14T06:55:05.095Z,11.03
2019-05-14T06:56:08.329Z,11.10
2019-05-14T06:57:18.314Z,11.07
2019-05-14T06:58:09.210Z,11.16
2019-05-14T06:59:28.690Z,11.24
2019-05-14T07:00:29.680Z,11.14
2019-05-14T07:01:32.169Z,11.27
2019-05-14T07:02:43.274Z,11.19
2019-05-14T07:03:48.859Z,11.25
2019-05-14T07:04:58.904Z,11.31
2019-05-14T07:05:55.235Z,11.28
2019-05-14T07:07:04.877Z,11.36
2019-05-14T07:08:18.736Z,11.36
2019-05-14T07:09:14.037Z,11.34
2019-05-14T07:10:22.407Z,11.38
2019-05-14T07:11:25.272Z,11.39
2019-05-14T07:12:38.619Z,11.39
2019-05-14T07:13:33.629Z,11.49
2019-05-14T07:14:38.773Z,11.49
2019-05-14T07:15:58.183Z,11.54
2019-05-14T07:16:48.858Z,11.47
2019-05-14T07:17:52.043Z,11.56
2019-05-14T07:19:03.425Z,11.54
2019-05-14T07:20:10.792Z,11.50
2019-05-14T07:21:14.999Z,11.56
2019-05-14T07:22:19.450Z,11.61
2019-05-14T07:23:22.078Z,11.57
2019-05-14T07:24:28.216Z,11.59
2019-05-14T07:25:34.890Z,11.67
2019-05-14T07:26:42.793Z,11.59
2019-05-14T07:27:41.971Z,11.70
2019-05-14T07:28:48.662Z,11.65
2019-05-14T07:29:53.871Z,11.67
2019-05-14T07:31:00.324Z,11.68
2019-05-14T07:32:01.967Z,11.71
2019-05-14T07:33:10.069Z,11.82
2019-05-14T07:34:19.603Z,11.87
2019-05-14T07:35:28.759Z,11.83
2019-05-14T07:36:29.059Z,11.82
2019-05-14T07:37:33.337Z,11.94
2019-05-14T07:38:41.537Z,11.96
2019-05-14T07:39:45.125Z,11.89
2019-05-14T07:40:51.280Z,11.96
2019-05-14T07:41:52.820Z,11.85
2019-05-14T07:43:08.936Z,11.94
2019-05-14T07:44:09.935Z,11.97
2019-05-14T07:45:13.114Z,11.87
2019-05-14T07:46:20.293Z,11.93
2019-05-14T07:47:19.579Z,11.97
2019-05-14T07:48:28.664Z,11.87
2019-05-14T07:49:39.152Z,12.02
2019-05-14T07:50:42.949Z,12.01
2019-05-14T07:51:53.924Z,12.04
2019-05-14T07:52:58.625Z,12.05
2019-05-14T07:54:03.656Z,12.01
2019-05-14T07:55:09.100Z,12.04
2019-05-14T07:56:20.257Z,12.01
2019-05-14T07:57:18.941Z,12.06
2019-05-14T07:58:14.747Z,12.12
2019-05-14T07:59:37.693Z,12.11
2019-05-14T08:00:29.632Z,12.20
2019-05-14T08:01:40.675Z,12.11
2019-05-14T08:02:39.422Z,12.24
2019-05-14T08:03:55.225Z,12.13
2019-05-14T08:04:43.865Z,12.20
2019-05-14T08:05:53.704Z,12.26
2019-05-14T08:07:03.956Z,12.30
2019-05-14T08:08:00.989Z,12.29
2019-05-14T08:09:14.921Z,12.29
2019-05-14T08:10:14.828Z,12.31
2019-05-14T08:11:25.275Z,12.27
2019-05-14T08:12:33.577Z,12.30
2019-05-14T08:13:35.536Z,12.37
2019-05-14T08:14:57.638Z,12.33
2019-05-14T08:15:48.840Z,12.27
2019-05-14T08:16:59.327Z,12.26
2019-05-14T08:17:55.936Z,12.29
2019-05-14T08:19:04.822Z,12.34
2019-05-14T08:20:13.772Z,12.44
2019-05-14T08:21:04.965Z,12.42
2019-05-14T08:22:18.557Z,12.54
2019-05-14T08:23:24.541Z,12.59
2019-05-14T08:24:29.545Z,12.51
2019-05-14T08:25:47.910Z,12.59
2019-05-14T08:26:42.851Z,12.59
2019-05-14T08:27:42.896Z,12.64
2019-05-14T08:28:50.581Z,12.62
2019-05-14T08:29:44.444Z,12.69
2019-05-14T08:30:58.501Z,12.69
2019-05-14T08:32:01.867Z,12.69
2019-05-14T08:33:11.090Z,12.74
2019-05-14T08:34:19.115Z,12.74
2019-05-14T08:35:33.958Z,12.78
2019-05-14T08:36:22.373Z,12.78
2019-05-14T08:37:33.848Z,12.81
2019-05-14T08:38:40.617Z,12.85
2019-05-14T08:39:56.377Z,12.93
2019-05-14T08:40:54.758Z,12.88
2019-05-14T08:42:03.825Z,13.00
2019-05-14T08:43:05.218Z,12.99
2019-05-14T08:44:14.543Z,13.00
2019-05-14T08:45:09.428Z,12.95
2019-05-14T08:46:24.601Z,12.96
2019-05-14T08:47:29.100Z,13.12
2019-05-14T08:48:23.482Z,13.04
2019-05-14T08:49:39.003Z,13.11
2019-05-14T08:50:45.203Z,13.03
2019-05-14T08:51:45.315Z,13.12
2019-05-14T08:52:58.135Z,13.11
2019-05-14T08:53:55.469Z,13.15
2019-05-14T08:55:09.179Z,13.14
2019-05-14T08:56:12.550Z,13.21
2019-05-14T08:57:18.860Z,13.24
2019-05-14T08:58:15.630Z,13.30
2019-05-14T08:59:21.507Z,13.30
2019-05-14T09:00:38.386Z,13.29
2019-05-14T09:01:33.196Z,13.24
2019-05-14T09:02:43.605Z,13.40
2019-05-14T09:03:49.018Z,13.36
2019-05-14T09:04:52.594Z,13.41
2019-05-14T09:06:10.188Z,13.30
2019-05-14T09:07:23.825Z,13.33
2019-05-14T09:08:08.739Z,13.40
2019-05-14T09:09:22.158Z,13.40
2019-05-14T09:10:16.064Z,13.43
2019-05-14T09:11:43.974Z,13.41
2019-05-14T09:12:28.255Z,13.43
2019-05-14T09:13:39.741Z,13.55
2019-05-14T09:14:40.862Z,13.56
2019-05-14T09:15:45.281Z,13.55
2019-05-14T09:16:51.334Z,13.69
2019-05-14T09:18:03.165Z,13.58
2019-05-14T09:19:08.687Z,13.62
2019-05-14T09:20:11.323Z,13.63
2019-05-14T09:21:21.457Z,13.74
2019-05-14T09:22:23.710Z,13.83
2019-05-14T09:23:28.513Z,13.76
2019-05-14T09:24:32.336Z,13.83
2019-05-14T09:25:48.679Z,13.84
2019-05-14T09:26:52.309Z,13.81
2019-05-14T09:28:28.427Z,13.95
2019-05-14T09:29:16.976Z,13.92
2019-05-14T09:30:28.910Z,13.96
2019-05-14T09:31:25.416Z,14.10
2019-05-14T09:32:18.656Z,14.06
2019-05-14T09:33:24.441Z,14.21
2019-05-14T09:34:33.510Z,14.16
2019-05-14T09:36:07.763Z,14.24
2019-05-14T09:36:48.707Z,14.34
2019-05-14T09:37:44.300Z,14.37
2019-05-14T09:38:58.201Z,14.32
2019-05-14T09:40:19.825Z,14.38
2019-05-14T09:41:08.143Z,14.37
2019-05-14T09:42:03.578Z,14.49
2019-05-14T09:43:10.453Z,14.53
2019-05-14T09:44:22.942Z,14.49
2019-05-14T09:45:34.214Z,14.56
2019-05-14T09:46:24.182Z,14.61
2019-05-14T09:47:30.249Z,14.53
2019-05-14T09:48:48.376Z,14.57
2019-05-14T09:49:53.494Z,14.57
2019-05-14T09:50:48.852Z,14.61
2019-05-14T09:51:50.332Z,14.57
2019-05-14T09:53:09.463Z,14.68
2019-05-14T09:54:15.328Z,14.80
2019-05-14T09:55:20.640Z,14.80
2019-05-14T09:56:11.660Z,14.74
2019-05-14T09:57:11.667Z,14.86
2019-05-14T09:58:28.129Z,14.84
2019-05-14T09:59:33.285Z,14.87
2019-05-14T10:00:49.987Z,14.83
2019-05-14T10:01:39.804Z,14.80
2019-05-14T10:02:48.860Z,14.93
2019-05-14T10:03:51.443Z,14.98
2019-05-14T10:04:50.788Z,14.93
2019-05-14T10:06:00.563Z,14.94
2019-05-14T10:07:08.617Z,14.99
2019-05-14T10:08:15.223Z,15.09
2019-05-14T10:09:17.805Z,15.03
2019-05-14T10:10:30.267Z,15.11
2019-05-14T10:11:29.475Z,15.17
2019-05-14T10:12:52.439Z,15.23
2019-05-14T10:13:48.307Z,15.24
2019-05-14T10:14:39.206Z,15.20
2019-05-14T10:15:59.304Z,15.20
2019-05-14T10:16:53.583Z,15.19
2019-05-14T10:18:01.605Z,15.23
2019-05-14T10:19:11.510Z,15.28
2019-05-14T10:20:36.578Z,15.23
2019-05-14T10:21:20.227Z,15.24
2019-05-14T10:22:34.878Z,15.23
2019-05-14T10:23:38.948Z,15.23
2019-05-14T10:24:32.333Z,15.24
2019-05-14T10:25:42.231Z,15.27
2019-05-14T10:26:44.837Z,15.33
2019-05-14T10:27:58.945Z,15.41
2019-05-14T10:28:58.940Z,15.42
2019-05-14T10:30:18.079Z,15.45
2019-05-14T10:31:09.414Z,15.48
2019-05-14T10:32:22.655Z,15.49
2019-05-14T10:33:24.813Z,15.51
2019-05-14T10:34:30.872Z,15.48
2019-05-14T10:35:43.468Z,15.45
2019-05-14T10:36:48.770Z,15.46
2019-05-14T10:37:54.361Z,15.43
2019-05-14T10:38:46.967Z,15.45
2019-05-14T10:39:49.980Z,15.39
2019-05-14T10:41:02.955Z,15.36
2019-05-14T10:42:03.686Z,15.45
2019-05-14T10:43:13.464Z,15.49
2019-05-14T10:44:25.505Z,15.72
2019-05-14T10:45:38.269Z,15.70
2019-05-14T10:46:33.815Z,15.67
2019-05-14T10:47:29.137Z,15.61
2019-05-14T10:48:39.778Z,15.72
2019-05-14T10:49:44.791Z,15.81
2019-05-14T10:50:56.181Z,15.88
2019-05-14T10:51:58.532Z,15.88
2019-05-14T10:52:59.607Z,15.85
2019-05-14T10:54:18.818Z,15.81
2019-05-14T10:55:20.665Z,15.86
2019-05-14T10:56:19.003Z,15.82
2019-05-14T10:57:33.897Z,15.84
2019-05-14T10:58:35.024Z,15.78
2019-05-14T10:59:50.084Z,15.78
2019-05-14T11:00:42.189Z,15.82
2019-05-14T11:01:54.659Z,15.85
2019-05-14T11:02:50.716Z,15.88
2019-05-14T11:04:09.582Z,15.92
2019-05-14T11:05:00.458Z,15.94
2019-05-14T11:06:05.897Z,15.93
2019-05-14T11:07:18.633Z,15.94
2019-05-14T11:08:23.007Z,15.97
2019-05-14T11:09:37.897Z,16.01
2019-05-14T11:10:29.699Z,15.96
2019-05-14T11:11:30.100Z,16.03
2019-05-14T11:12:41.057Z,15.89
2019-05-14T11:13:57.858Z,15.97
2019-05-14T11:14:53.846Z,16.01
2019-05-14T11:15:55.625Z,15.94
2019-05-14T11:16:59.821Z,16.03
2019-05-14T11:18:12.229Z,16.12
2019-05-14T11:19:09.976Z,16.09
2019-05-14T11:20:12.031Z,16.25
2019-05-14T11:21:39.100Z,16.31
2019-05-14T11:22:37.961Z,16.27
2019-05-14T11:23:38.598Z,16.30
2019-05-14T11:24:45.235Z,16.40
2019-05-14T11:25:48.879Z,16.27
2019-05-14T11:27:04.923Z,16.41
2019-05-14T11:28:01.435Z,16.45
2019-05-14T11:29:11.376Z,16.48
2019-05-14T11:30:20.196Z,16.55
2019-05-14T11:31:13.442Z,16.60
2019-05-14T11:32:41.194Z,16.62
2019-05-14T11:33:30.548Z,16.67
2019-05-14T11:35:19.090Z,16.83
2019-05-14T11:36:21.265Z,16.90
2019-05-14T11:37:19.008Z,16.83
2019-05-14T11:38:36.653Z,16.90
2019-05-14T11:39:09.239Z,16.92
2019-05-14T11:40:21.484Z,17.00
2019-05-14T11:41:23.885Z,17.08
2019-05-14T11:42:34.303Z,17.10
2019-05-14T11:43:17.927Z,17.13
2019-05-14T11:44:35.234Z,17.25
2019-05-14T11:45:34.317Z,17.26
2019-05-14T11:46:57.394Z,17.30
2019-05-14T11:47:48.661Z,17.46
2019-05-14T11:48:50.323Z,17.36
2019-05-14T11:49:52.304Z,17.32
2019-05-14T11:51:04.258Z,17.38
2019-05-14T11:52:07.700Z,17.38
2019-05-14T11:53:10.105Z,17.36
2019-05-14T11:54:22.765Z,17.38
2019-05-14T11:55:20.052Z,17.36
2019-05-14T11:56:24.640Z,17.41
2019-05-14T11:57:27.438Z,17.51
2019-05-14T11:58:32.468Z,17.53
2019-05-14T11:59:47.525Z,17.63
2019-05-14T12:00:52.549Z,17.70
2019-05-14T12:01:54.829Z,17.78
2019-05-14T12:03:00.763Z,17.74
2019-05-14T12:04:08.806Z,17.85
2019-05-14T12:05:10.699Z,17.81
2019-05-14T12:06:19.309Z,17.88
2019-05-14T12:07:18.768Z,17.89
2019-05-14T12:08:18.836Z,17.92
2019-05-14T12:09:38.900Z,17.92
2019-05-14T12:10:32.754Z,17.87
2019-05-14T12:11:38.742Z,18.06
2019-05-14T12:12:43.822Z,18.02
2019-05-14T12:13:48.704Z,17.94
2019-05-14T12:14:58.244Z,17.94
2019-05-14T12:16:05.047Z,17.94
2019-05-14T12:17:09.456Z,17.97
2019-05-14T12:18:10.377Z,18.03
2019-05-14T12:19:18.748Z,18.02
2019-05-14T12:20:32.008Z,17.94
2019-05-14T12:21:31.908Z,17.92
2019-05-14T12:22:34.267Z,17.99
2019-05-14T12:23:35.703Z,17.85
2019-05-14T12:24:45.954Z,17.95
2019-05-14T12:25:53.128Z,18.00
2019-05-14T12:26:58.583Z,18.03
2019-05-14T12:28:02.155Z,18.06
2019-05-14T12:29:11.077Z,18.22
2019-05-14T12:30:16.205Z,18.13
2019-05-14T12:31:14.054Z,18.18
2019-05-14T12:32:30.050Z,18.15
2019-05-14T12:33:34.778Z,18.04
2019-05-14T12:34:49.205Z,18.04
2019-05-14T12:35:40.498Z,18.02
2019-05-14T12:36:44.703Z,18.04
2019-05-14T12:37:58.529Z,17.97
2019-05-14T12:38:55.395Z,18.13
2019-05-14T12:40:02.440Z,18.12
2019-05-14T12:41:19.076Z,18.24
2019-05-14T12:42:12.505Z,18.19
2019-05-14T12:43:20.790Z,18.13
2019-05-14T12:44:37.222Z,17.92
2019-05-14T12:45:35.660Z,17.91
2019-05-14T12:46:42.424Z,17.84
2019-05-14T12:47:40.073Z,17.82
2019-05-14T12:48:59.011Z,17.88
2019-05-14T12:50:02.512Z,17.81
2019-05-14T12:50:55.757Z,17.89
2019-05-14T12:52:17.791Z,17.91
2019-05-14T12:53:11.336Z,17.91
2019-05-14T12:54:14.416Z,18.02
2019-05-14T12:55:21.691Z,17.89
2019-05-14T12:56:24.065Z,18.00
2019-05-14T12:57:30.193Z,17.99
2019-05-14T12:58:33.595Z,17.99
2019-05-14T12:59:43.533Z,17.88
2019-05-14T13:00:48.750Z,17.85
2019-05-14T13:01:50.718Z,17.91
2019-05-14T13:02:59.528Z,17.92
2019-05-14T13:03:59.232Z,17.91
2019-05-14T13:05:09.679Z,17.95
2019-05-14T13:06:14.608Z,17.92
2019-05-14T13:07:24.541Z,17.92
2019-05-14T13:08:23.738Z,17.97
2019-05-14T13:09:43.811Z,17.85
2019-05-14T13:10:43.710Z,17.91
2019-05-14T13:11:44.738Z,17.79
2019-05-14T13:12:50.891Z,17.87
2019-05-14T13:13:53.970Z,17.85
2019-05-14T13:15:01.759Z,17.82
2019-05-14T13:16:04.853Z,17.71
2019-05-14T13:17:01.877Z,17.76
2019-05-14T13:18:19.700Z,17.84
2019-05-14T13:19:28.496Z,17.87
2019-05-14T13:20:31.938Z,17.85
2019-05-14T13:21:32.827Z,17.92
2019-05-14T13:22:42.274Z,17.79
2019-05-14T13:23:40.027Z,17.79
2019-05-14T13:24:55.280Z,17.85
2019-05-14T13:25:58.588Z,17.88
2019-05-14T13:26:55.388Z,17.89
2019-05-14T13:28:10.449Z,17.91
2019-05-14T13:29:11.014Z,17.92
2019-05-14T13:30:14.047Z,17.91
2019-05-14T13:31:19.073Z,18.07
2019-05-14T13:32:29.115Z,18.02
2019-05-14T13:33:41.106Z,18.10
2019-05-14T13:34:37.186Z,18.18
2019-05-14T13:35:48.291Z,18.21
2019-05-14T13:37:06.209Z,18.29
2019-05-14T13:37:54.241Z,18.31
2019-05-14T13:39:04.288Z,18.29
2019-05-14T13:39:59.206Z,18.22
2019-05-14T13:41:10.642Z,18.25
2019-05-14T13:42:23.243Z,18.24
2019-05-14T13:43:30.364Z,18.13
2019-05-14T13:44:33.810Z,18.13
2019-05-14T13:45:40.673Z,18.15
2019-05-14T13:46:42.332Z,18.04
2019-05-14T13:47:48.526Z,18.02
2019-05-14T13:48:58.946Z,17.92
2019-05-14T13:50:01.697Z,17.88
2019-05-14T13:51:04.986Z,17.88
2019-05-14T13:52:05.594Z,17.95
2019-05-14T13:53:14.415Z,17.88
2019-05-14T13:54:21.691Z,17.91
2019-05-14T13:55:22.106Z,18.02
2019-05-14T13:56:28.200Z,17.99
2019-05-14T13:57:41.573Z,17.95
2019-05-14T13:58:40.067Z,17.95
2019-05-14T13:59:51.636Z,18.00
2019-05-14T14:00:55.531Z,17.99
2019-05-14T14:02:02.390Z,17.84
2019-05-14T14:03:03.529Z,18.00
2019-05-14T14:04:10.623Z,18.00
2019-05-14T14:05:13.673Z,17.97
2019-05-14T14:06:20.597Z,18.04
2019-05-14T14:07:35.806Z,17.95
2019-05-14T14:08:29.119Z,18.04
2019-05-14T14:09:36.239Z,17.99
2019-05-14T14:10:51.589Z,17.91
2019-05-14T14:11:59.699Z,17.85
2019-05-14T14:12:59.638Z,18.02
2019-05-14T14:13:52.949Z,17.95
2019-05-14T14:15:09.360Z,17.94